Muzaffer Bey — 3FME7 — position and weather

sailwx.info

Track history (hours):
 
Tides and Currents Weather Stations Pressure Air Temp Water Temp Dewpoint Dewpoint Depression Visibility Wind Speed Wind Dir Waves Ship Positions

Muzaffer Bey

Last reported at 2018-Aug-14 19:00 UTC. Time now 2018-Aug-14 19:27 UTC.
Position N 44°10' E 031°30'.

Length 102 m; draft 6.4 m.

Type: Cargo ship. MMSI: 370824000.

Date/timePositionNaut miles runAvg speedWind from/ knotsBaromVisibWave heightAir tempDewpointWater temp
2018-Aug-14 19:00N 44°10' E 031°30'1210.2
2018-Aug-14 17:50N 44°11' E 031°47'310.1
2018-Aug-14 17:30N 44°11' E 031°51'12 9.8
2018-Aug-14 16:15N 44°12' E 032°09'2 9.9
2018-Aug-14 16:01N 44°12' E 032°12'510.0
2018-Aug-14 15:30N 44°13' E 032°19'14 9.9
2018-Aug-14 14:08N 44°14' E 032°38'1 9.8
2018-Aug-14 14:00N 44°14' E 032°40'16510.4
2018-Aug-13 22:05N 44°50' E 036°26'29 8.7
2018-Aug-13 18:45N 45°18' E 036°30'2 7.5
2018-Aug-13 18:29N 45°19' E 036°33'4 8.0
2018-Aug-13 18:00N 45°21' E 036°38'4 7.6
2018-Aug-13 17:27N 45°25' E 036°41'3 7.2
2018-Aug-13 17:00N 45°28' E 036°41'  
2018-Aug-10 03:29N 45°33' E 036°38'  
2018-Aug-06 23:21N 45°38' E 036°45'711.0
2018-Aug-06 22:42N 45°31' E 036°44'511.0
2018-Aug-06 22:16N 45°26' E 036°41'310.9
2018-Aug-06 22:00N 45°23' E 036°40'5 9.6
2018-Aug-06 21:30N 45°20' E 036°35'510.3
2018-Aug-06 21:00N 45°17' E 036°29'5 7.9
2018-Aug-06 20:25N 45°13' E 036°29'4 8.8
2018-Aug-06 19:55N 45°09' E 036°30'1 0.4
2018-Aug-06 16:48N 45°08' E 036°32'0 0.0
2018-Aug-06 16:21N 45°08' E 036°32'0 0.0
2018-Aug-06 16:00N 45°08' E 036°32'0 0.0
2018-Aug-06 15:27N 45°08' E 036°32'0 0.0
2018-Aug-06 15:00N 45°08' E 036°32'0 0.1
2018-Aug-06 14:24N 45°08' E 036°31'0 0.1
2018-Aug-06 13:45N 45°08' E 036°31'0 0.0
2018-Aug-05 22:06N 45°08' E 036°32'0 0.1
2018-Aug-05 22:00N 45°08' E 036°32'0 0.0
2018-Aug-05 18:12N 45°08' E 036°32'0 0.1
2018-Aug-05 18:00N 45°08' E 036°31'0 0.0
2018-Aug-05 16:00N 45°08' E 036°31'0 0.1
2018-Aug-05 15:30N 45°08' E 036°31'0 0.0
2018-Aug-05 14:57N 45°08' E 036°31'0 0.0
2018-Aug-05 11:54N 45°08' E 036°31'0 0.0
2018-Aug-05 10:18N 45°08' E 036°31'0 0.0
2018-Aug-05 10:00N 45°08' E 036°31'0 0.0
2018-Aug-05 08:30N 45°08' E 036°31'0 0.0
2018-Aug-05 08:00N 45°08' E 036°31'0 0.0
2018-Aug-05 07:21N 45°08' E 036°31'0 0.0
2018-Aug-05 06:54N 45°08' E 036°31'0 0.0
2018-Aug-05 06:30N 45°08' E 036°31'0 0.0
2018-Aug-05 06:00N 45°08' E 036°31'0 0.0
2018-Aug-05 05:30N 45°08' E 036°31'0 0.0
2018-Aug-05 04:57N 45°08' E 036°31'0 0.0
2018-Aug-05 04:27N 45°08' E 036°31'  
Track history (hours):
 
Tides and Currents Weather Stations Pressure Air Temp Water Temp Dewpoint Dewpoint Depression Visibility Wind Speed Wind Dir Waves Ship Positions

Muzaffer Bey

Last reported at 2018-Aug-14 19:00 UTC. Time now 2018-Aug-14 19:27 UTC.
Position N 44°10' E 031°30'.

Length 102 m; draft 6.4 m.

Type: Cargo ship. MMSI: 370824000.

Date/timePositionNaut miles runAvg speedWind from/ knotsBaromVisibWave heightAir tempDewpointWater temp
2018-Aug-14 19:00N 44°10' E 031°30'1210.2
2018-Aug-14 17:50N 44°11' E 031°47'310.1
2018-Aug-14 17:30N 44°11' E 031°51'12 9.8
2018-Aug-14 16:15N 44°12' E 032°09'2 9.9
2018-Aug-14 16:01N 44°12' E 032°12'510.0
2018-Aug-14 15:30N 44°13' E 032°19'14 9.9
2018-Aug-14 14:08N 44°14' E 032°38'1 9.8
2018-Aug-14 14:00N 44°14' E 032°40'16510.4
2018-Aug-13 22:05N 44°50' E 036°26'29 8.7
2018-Aug-13 18:45N 45°18' E 036°30'2 7.5
2018-Aug-13 18:29N 45°19' E 036°33'4 8.0
2018-Aug-13 18:00N 45°21' E 036°38'4 7.6
2018-Aug-13 17:27N 45°25' E 036°41'3 7.2
2018-Aug-13 17:00N 45°28' E 036°41'  
2018-Aug-10 03:29N 45°33' E 036°38'  
2018-Aug-06 23:21N 45°38' E 036°45'711.0
2018-Aug-06 22:42N 45°31' E 036°44'511.0
2018-Aug-06 22:16N 45°26' E 036°41'310.9
2018-Aug-06 22:00N 45°23' E 036°40'5 9.6
2018-Aug-06 21:30N 45°20' E 036°35'510.3
2018-Aug-06 21:00N 45°17' E 036°29'5 7.9
2018-Aug-06 20:25N 45°13' E 036°29'4 8.8
2018-Aug-06 19:55N 45°09' E 036°30'1 0.4
2018-Aug-06 16:48N 45°08' E 036°32'0 0.0
2018-Aug-06 16:21N 45°08' E 036°32'0 0.0
2018-Aug-06 16:00N 45°08' E 036°32'0 0.0
2018-Aug-06 15:27N 45°08' E 036°32'0 0.0
2018-Aug-06 15:00N 45°08' E 036°32'0 0.1
2018-Aug-06 14:24N 45°08' E 036°31'0 0.1
2018-Aug-06 13:45N 45°08' E 036°31'0 0.0
2018-Aug-05 22:06N 45°08' E 036°32'0 0.1
2018-Aug-05 22:00N 45°08' E 036°32'0 0.0
2018-Aug-05 18:12N 45°08' E 036°32'0 0.1
2018-Aug-05 18:00N 45°08' E 036°31'0 0.0
2018-Aug-05 16:00N 45°08' E 036°31'0 0.1
2018-Aug-05 15:30N 45°08' E 036°31'0 0.0
2018-Aug-05 14:57N 45°08' E 036°31'0 0.0
2018-Aug-05 11:54N 45°08' E 036°31'0 0.0
2018-Aug-05 10:18N 45°08' E 036°31'0 0.0
2018-Aug-05 10:00N 45°08' E 036°31'0 0.0
2018-Aug-05 08:30N 45°08' E 036°31'0 0.0
2018-Aug-05 08:00N 45°08' E 036°31'0 0.0
2018-Aug-05 07:21N 45°08' E 036°31'0 0.0
2018-Aug-05 06:54N 45°08' E 036°31'0 0.0
2018-Aug-05 06:30N 45°08' E 036°31'0 0.0
2018-Aug-05 06:00N 45°08' E 036°31'0 0.0
2018-Aug-05 05:30N 45°08' E 036°31'0 0.0
2018-Aug-05 04:57N 45°08' E 036°31'0 0.0
2018-Aug-05 04:27N 45°08' E 036°31'  

Dump ship's entire track history